Time;durP1;ratioP1;P1;durP2;ratioP2;P2;SDS_P1;SDS_P2;PMS_P1;PMS_P2;Temp;Humidity;BMP_temperature;BMP_pressure;BME280_temperature;BME280_humidity;BME280_pressure;Samples;Min_cycle;Max_cycle;Signal;HPM_P1;HPM_P2
2021/12/16 00:02:19;;;;;;;54.33;28.98;;;;;;;-1.31;100.00;91598.69;5114234;28;20046;-69
2021/12/16 00:07:50;;;;;;;57.20;30.33;;;;;;;-1.47;100.00;91599.28;5114384;28;20047;-69
2021/12/16 00:10:24;;;;;;;55.17;29.95;;;;;;;-1.44;100.00;91597.03;5113901;28;20035;-69
2021/12/16 00:32:17;;;;;;;61.30;30.48;;;;;;;-1.18;100.00;91602.94;5113562;28;20031;-69
2021/12/16 00:34:42;;;;;;;59.47;28.38;;;;;;;-1.28;100.00;91590.41;5113288;28;20456;-69
2021/12/16 00:37:08;;;;;;;60.78;30.95;;;;;;;-1.35;100.00;91589.72;5113671;28;20031;-69
2021/12/16 00:39:36;;;;;;;62.88;31.23;;;;;;;-1.35;100.00;91590.50;5113522;27;20023;-69
2021/12/16 00:42:10;;;;;;;118.07;55.45;;;;;;;-1.48;100.00;91589.88;5112748;28;20496;-69
2021/12/16 00:49:48;;;;;;;90.95;40.58;;;;;;;-1.70;100.00;91586.94;5113421;28;20552;-69
2021/12/16 00:55:26;;;;;;;78.63;35.00;;;;;;;-1.71;100.00;91599.19;5113298;28;20462;-69
2021/12/16 00:57:53;;;;;;;73.38;34.40;;;;;;;-1.77;100.00;91591.41;5112854;28;20036;-69
2021/12/16 01:00:19;;;;;;;71.07;33.53;;;;;;;-1.79;100.00;91601.28;5113240;28;20098;-69
2021/12/16 01:03:13;;;;;;;72.95;33.67;;;;;;;-1.87;100.00;91597.16;5113190;27;20072;-69
2021/12/16 01:35:44;;;;;;;86.82;39.25;;;;;;;-2.70;100.00;91589.69;5112202;28;20144;-69
2021/12/16 01:57:05;;;;;;;92.53;40.70;;;;;;;-2.79;100.00;91573.56;5111898;28;20264;-68
2021/12/16 01:59:36;;;;;;;139.10;42.80;;;;;;;-2.72;100.00;91561.28;5112161;28;20034;-68
2021/12/16 02:02:25;;;;;;;152.48;47.70;;;;;;;-2.53;100.00;91576.94;5112026;28;20034;-69
2021/12/16 02:08:40;;;;;;;152.80;55.00;;;;;;;-2.27;100.00;91566.28;5101340;28;20462;-68
2021/12/16 02:10:41;;;;;;;114.22;43.78;;;;;;;-1.99;100.00;91583.25;5106321;28;20463;-68
2021/12/16 02:29:44;;;;;;;78.45;32.78;;;;;;;-2.36;100.00;91574.59;5111721;28;20088;-68
2021/12/16 02:32:33;;;;;;;71.97;31.13;;;;;;;-2.33;100.00;91566.34;5111439;28;20024;-69
2021/12/16 02:37:30;;;;;;;83.20;38.10;;;;;;;-2.38;100.00;91572.19;5112015;28;20126;-68
2021/12/16 02:39:56;;;;;;;52.80;26.13;;;;;;;-2.50;100.00;91574.72;5111196;28;20023;-69
2021/12/16 02:42:34;;;;;;;54.17;25.65;;;;;;;-2.67;100.00;91568.47;5111587;28;20043;-70
2021/12/16 02:50:19;;;;;;;45.90;20.88;;;;;;;-2.90;100.00;91561.22;5111650;28;20144;-69
2021/12/16 02:52:45;;;;;;;48.20;22.55;;;;;;;-3.05;100.00;91552.94;5111499;28;20066;-70
2021/12/16 02:55:13;;;;;;;52.53;23.27;;;;;;;-3.08;100.00;91555.97;5111048;28;20485;-69
2021/12/16 02:58:00;;;;;;;60.40;26.17;;;;;;;-3.15;100.00;91560.44;5111077;28;20027;-68
2021/12/16 03:00:28;;;;;;;60.47;25.92;;;;;;;-3.16;100.00;91559.59;5111137;28;20126;-68
2021/12/16 03:02:54;;;;;;;60.05;24.63;;;;;;;-3.23;100.00;91563.28;5110883;28;20028;-68
2021/12/16 03:05:21;;;;;;;71.38;30.30;;;;;;;-3.25;100.00;91560.88;5111308;28;20030;-68
2021/12/16 03:07:49;;;;;;;78.47;31.50;;;;;;;-3.27;100.00;91555.09;5111196;28;20032;-69
2021/12/16 03:13:24;;;;;;;72.22;27.08;;;;;;;-3.57;100.00;91560.06;5111023;28;20073;-69
2021/12/16 03:21:00;;;;;;;108.28;36.00;;;;;;;-3.98;100.00;91557.84;5111150;28;20100;-69
2021/12/16 03:37:12;;;;;;;115.03;42.55;;;;;;;-3.60;100.00;91576.09;5114587;28;20051;-69
2021/12/16 03:39:43;;;;;;;88.25;31.20;;;;;;;-3.42;100.00;91583.19;5114489;28;20110;-69
2021/12/16 03:42:09;;;;;;;61.40;25.17;;;;;;;-3.29;100.00;91579.72;5114748;28;20111;-69
2021/12/16 03:44:56;;;;;;;54.10;23.92;;;;;;;-3.26;100.00;91576.72;5114821;28;20446;-69
2021/12/16 03:47:35;;;;;;;48.25;21.92;;;;;;;-3.11;100.00;91582.41;5114027;28;20063;-69
2021/12/16 03:50:03;;;;;;;51.80;20.67;;;;;;;-2.97;100.00;91590.94;5113264;28;20065;-69
2021/12/16 03:52:28;;;;;;;44.70;23.70;;;;;;;-3.09;100.00;91588.19;5114677;28;20035;-69
2021/12/16 03:54:55;;;;;;;53.40;23.38;;;;;;;-3.15;100.00;91579.44;5116358;27;20561;-69
2021/12/16 03:57:25;;;;;;;58.25;27.05;;;;;;;-3.07;100.00;91570.56;5123078;27;20031;-69
2021/12/16 03:59:52;;;;;;;53.08;23.38;;;;;;;-3.13;100.00;91579.22;5122025;27;20071;-69
2021/12/16 04:02:33;;;;;;;60.92;28.00;;;;;;;-2.94;100.00;91580.88;5119183;27;20035;-69
2021/12/16 04:05:00;;;;;;;43.28;20.48;;;;;;;-2.85;100.00;91584.00;5120157;27;20084;-69
2021/12/16 04:07:29;;;;;;;45.00;24.02;;;;;;;-2.77;100.00;91578.56;5110987;27;20046;-69
2021/12/16 04:09:55;;;;;;;50.80;25.27;;;;;;;-2.71;100.00;91573.28;5113792;28;20043;-69
2021/12/16 04:12:24;;;;;;;44.63;21.73;;;;;;;-2.69;100.00;91570.47;5113733;28;20035;-69
2021/12/16 04:14:54;;;;;;;42.03;20.77;;;;;;;-2.71;100.00;91573.28;5113858;28;20094;-67
2021/12/16 04:17:24;;;;;;;43.67;20.73;;;;;;;-2.66;100.00;91572.66;5118885;27;20531;-66
2021/12/16 04:19:50;;;;;;;43.45;20.55;;;;;;;-2.61;100.00;91572.00;5124410;27;20083;-65
2021/12/16 04:22:31;;;;;;;34.25;16.52;;;;;;;-2.58;100.00;91574.97;5121116;27;20099;-66
2021/12/16 04:25:01;;;;;;;38.08;18.27;;;;;;;-2.64;100.00;91570.63;5113038;28;20038;-66
2021/12/16 04:27:27;;;;;;;35.97;17.05;;;;;;;-2.83;100.00;91571.59;5113724;28;20581;-66
2021/12/16 04:29:53;;;;;;;30.55;16.75;;;;;;;-3.06;100.00;91552.13;5113358;28;20085;-68
2021/12/16 04:32:18;;;;;;;28.92;14.00;;;;;;;-2.98;100.00;91564.09;5113785;28;20031;-65
2021/12/16 04:34:45;;;;;;;30.77;15.55;;;;;;;-2.97;100.00;91573.50;5113130;28;20490;-67
2021/12/16 04:37:11;;;;;;;31.23;16.00;;;;;;;-3.03;100.00;91575.13;5112952;28;20075;-66
2021/12/16 04:39:39;;;;;;;29.30;14.75;;;;;;;-2.97;100.00;91581.31;5113372;28;20048;-66
2021/12/16 04:42:06;;;;;;;27.70;14.45;;;;;;;-3.06;100.00;91575.56;5111934;28;20046;-65
2021/12/16 04:44:33;;;;;;;49.47;22.42;;;;;;;-3.10;100.00;91571.78;5113420;28;20039;-64
2021/12/16 04:47:01;;;;;;;39.70;19.13;;;;;;;-3.05;100.00;91573.75;5113280;28;20489;-65
2021/12/16 04:49:27;;;;;;;39.30;18.02;;;;;;;-3.02;100.00;91576.72;5113255;28;20053;-65
2021/12/16 04:51:58;;;;;;;34.03;15.85;;;;;;;-2.91;100.00;91583.06;5112707;28;20048;-65
2021/12/16 04:54:25;;;;;;;31.77;16.67;;;;;;;-2.93;100.00;91579.88;5113282;28;20043;-66
2021/12/16 04:56:53;;;;;;;30.35;15.57;;;;;;;-2.90;100.00;91579.44;5113068;28;20036;-66
2021/12/16 04:59:21;;;;;;;44.50;23.52;;;;;;;-2.98;100.00;91579.72;5113183;27;20047;-66
2021/12/16 05:01:53;;;;;;;38.38;20.40;;;;;;;-2.87;100.00;91580.81;5113029;28;20124;-66
2021/12/16 05:04:19;;;;;;;32.03;17.70;;;;;;;-2.83;100.00;91575.00;5113129;28;20058;-68
2021/12/16 05:06:45;;;;;;;30.80;17.20;;;;;;;-2.81;100.00;91564.38;5112617;28;20289;-68
2021/12/16 05:09:19;;;;;;;34.22;18.55;;;;;;;-2.64;100.00;91569.84;5113245;28;20409;-65
2021/12/16 05:11:45;;;;;;;33.95;17.85;;;;;;;-2.57;100.00;91570.56;5112686;27;20047;-66
2021/12/16 05:14:11;;;;;;;44.20;23.25;;;;;;;-2.54;100.00;91562.31;5112617;28;20068;-66
2021/12/16 05:16:37;;;;;;;33.45;17.17;;;;;;;-2.44;100.00;91560.03;5112904;28;20057;-66
2021/12/16 05:19:03;;;;;;;39.25;22.33;;;;;;;-2.43;100.00;91564.22;5112974;27;20532;-66
2021/12/16 05:26:40;;;;;;;31.63;16.23;;;;;;;-2.51;100.00;91554.09;5112648;28;20040;-66
2021/12/16 05:29:06;;;;;;;33.17;18.55;;;;;;;-2.63;100.00;91550.59;5112792;28;20039;-66
2021/12/16 05:31:32;;;;;;;38.38;19.98;;;;;;;-2.60;100.00;91555.38;5112513;28;20035;-65
2021/12/16 05:33:59;;;;;;;44.50;21.30;;;;;;;-2.73;100.00;91554.47;5112387;28;20043;-66
2021/12/16 05:36:25;;;;;;;43.30;22.50;;;;;;;-2.71;100.00;91557.66;5112547;28;20062;-66
2021/12/16 05:38:51;;;;;;;36.00;17.00;;;;;;;-2.72;100.00;91556.06;5112609;28;20100;-66
2021/12/16 05:41:20;;;;;;;40.45;20.48;;;;;;;-2.72;100.00;91563.09;5112491;28;20051;-66
2021/12/16 05:43:45;;;;;;;42.22;20.55;;;;;;;-2.68;100.00;91560.84;5112454;28;20031;-66
2021/12/16 05:46:13;;;;;;;41.75;22.45;;;;;;;-2.53;100.00;91562.09;5112172;28;20493;-66
2021/12/16 05:48:42;;;;;;;36.50;17.67;;;;;;;-2.63;100.00;91561.03;5111645;28;20035;-66
2021/12/16 05:51:11;;;;;;;38.05;17.45;;;;;;;-2.83;100.00;91556.78;5112165;28;20038;-66
2021/12/16 05:53:37;;;;;;;55.47;26.73;;;;;;;-2.72;100.00;91560.47;5112345;28;20043;-66
2021/12/16 05:56:05;;;;;;;37.92;18.73;;;;;;;-2.60;100.00;91565.78;5112229;28;20565;-66
2021/12/16 05:58:31;;;;;;;39.80;22.48;;;;;;;-2.58;100.00;91563.78;5112188;28;20101;-66
2021/12/16 06:01:01;;;;;;;40.80;20.38;;;;;;;-2.63;100.00;91561.81;5111812;28;20039;-66
2021/12/16 06:03:28;;;;;;;42.33;19.73;;;;;;;-2.59;100.00;91562.97;5112046;28;20047;-67
2021/12/16 06:05:53;;;;;;;29.88;14.68;;;;;;;-2.49;100.00;91572.91;5111956;28;20023;-67
2021/12/16 06:08:20;;;;;;;33.25;18.40;;;;;;;-2.48;100.00;91564.88;5112015;28;20096;-67
2021/12/16 06:13:18;;;;;;;36.13;16.25;;;;;;;-2.30;100.00;91574.53;5112280;28;20138;-66
2021/12/16 06:26:33;;;;;;;35.20;18.58;;;;;;;-2.09;100.00;91580.34;5111782;28;20107;-67
2021/12/16 06:29:01;;;;;;;41.70;20.70;;;;;;;-2.12;100.00;91587.56;5111442;28;20023;-67
2021/12/16 06:31:26;;;;;;;37.53;20.30;;;;;;;-2.09;100.00;91581.13;5111732;28;20051;-67
2021/12/16 06:33:52;;;;;;;38.67;18.80;;;;;;;-1.88;100.00;91585.13;5111711;28;20538;-67
2021/12/16 06:36:18;;;;;;;44.78;22.02;;;;;;;-1.72;100.00;91594.19;5111636;28;20027;-67
2021/12/16 06:38:43;;;;;;;38.45;19.73;;;;;;;-1.61;100.00;91570.75;5111619;28;20031;-67
2021/12/16 06:41:09;;;;;;;33.63;19.27;;;;;;;-1.66;100.00;91568.00;5111489;28;20030;-67
2021/12/16 06:43:36;;;;;;;36.90;21.10;;;;;;;-1.43;100.00;91569.13;5111401;28;20052;-67
2021/12/16 06:46:04;;;;;;;31.13;17.85;;;;;;;-1.55;100.00;91562.06;5111399;28;20024;-67
2021/12/16 06:48:33;;;;;;;37.75;21.67;;;;;;;-1.54;100.00;91555.81;5111418;28;20035;-67
2021/12/16 06:51:15;;;;;;;29.08;15.82;;;;;;;-1.45;100.00;91558.13;5111241;28;20023;-67
2021/12/16 06:53:52;;;;;;;29.17;17.05;;;;;;;-1.26;100.00;91562.28;5111424;28;20032;-67
2021/12/16 06:56:26;;;;;;;27.98;16.00;;;;;;;-1.15;100.00;91555.50;5111417;28;20019;-67
2021/12/16 06:59:06;;;;;;;36.10;17.55;;;;;;;-1.10;100.00;91555.66;5112927;28;20077;-67
2021/12/16 07:01:40;;;;;;;32.00;17.58;;;;;;;-1.18;100.00;91561.97;5115452;28;20126;-67
2021/12/16 07:04:12;;;;;;;33.83;18.17;;;;;;;-0.91;100.00;91560.56;5115525;28;20070;-67
2021/12/16 07:06:39;;;;;;;36.65;18.77;;;;;;;-1.06;100.00;91552.38;5115504;28;20110;-67
2021/12/16 07:09:13;;;;;;;37.88;18.85;;;;;;;-0.98;100.00;91549.41;5115528;28;20039;-67
2021/12/16 07:11:42;;;;;;;35.75;16.83;;;;;;;-0.66;100.00;91562.19;5115198;28;20055;-67
2021/12/16 07:14:15;;;;;;;51.40;24.65;;;;;;;-0.76;100.00;91561.97;5115203;27;20493;-67
2021/12/16 07:16:43;;;;;;;44.50;20.45;;;;;;;-0.53;100.00;91556.75;5115714;28;20055;-67
2021/12/16 07:19:09;;;;;;;85.78;34.38;;;;;;;-0.44;100.00;91563.25;5115176;27;20048;-67
2021/12/16 07:21:37;;;;;;;46.60;22.50;;;;;;;-0.65;100.00;91564.56;5115041;28;20224;-67
2021/12/16 07:24:06;;;;;;;33.53;20.75;;;;;;;-0.52;100.00;91560.97;5115260;28;20024;-67
2021/12/16 07:26:31;;;;;;;40.08;21.30;;;;;;;-0.59;100.00;91568.13;5115211;28;20024;-67
2021/12/16 07:28:57;;;;;;;31.13;18.02;;;;;;;-0.49;100.00;91565.72;5115254;28;20039;-67
2021/12/16 07:31:22;;;;;;;29.90;17.42;;;;;;;-0.28;100.00;91564.38;5115037;28;20023;-67
2021/12/16 07:33:48;;;;;;;62.63;32.55;;;;;;;-0.43;100.00;91570.06;5114910;28;20084;-66
2021/12/16 07:36:18;;;;;;;35.42;19.42;;;;;;;-0.35;100.00;91569.72;5114974;28;20015;-67
2021/12/16 07:38:45;;;;;;;38.88;22.23;;;;;;;0.04;100.00;91567.44;5114775;28;20028;-67
2021/12/16 07:41:11;;;;;;;26.33;14.68;;;;;;;0.35;100.00;91565.47;5114808;28;20066;-67
2021/12/16 07:43:58;;;;;;;30.98;18.00;;;;;;;0.24;100.00;91562.63;5114775;28;20039;-67
2021/12/16 07:46:25;;;;;;;34.25;21.42;;;;;;;0.32;100.00;91564.09;5115078;28;20397;-67
2021/12/16 07:48:51;;;;;;;30.63;18.38;;;;;;;0.52;100.00;91569.72;5114766;28;20027;-67
2021/12/16 07:51:17;;;;;;;40.97;21.48;;;;;;;0.72;100.00;91563.28;5114581;28;20556;-67
2021/12/16 07:53:43;;;;;;;31.92;17.98;;;;;;;1.06;100.00;91572.03;5114534;28;20036;-67
2021/12/16 07:56:09;;;;;;;38.08;22.02;;;;;;;1.22;100.00;91573.88;5114609;28;20024;-66
2021/12/16 07:58:36;;;;;;;32.20;18.27;;;;;;;1.38;99.32;91577.56;5114616;28;20042;-67
2021/12/16 08:01:03;;;;;;;44.95;26.48;;;;;;;1.55;96.27;91580.97;5114373;28;20020;-66
2021/12/16 08:03:35;;;;;;;32.05;19.40;;;;;;;1.09;98.40;91579.41;5114540;28;20031;-67
2021/12/16 08:06:06;;;;;;;54.75;29.58;;;;;;;1.18;98.38;91573.56;5114406;28;20077;-67
2021/12/16 08:08:32;;;;;;;25.45;15.43;;;;;;;1.65;95.18;91583.78;5114444;28;20515;-67
2021/12/16 08:10:58;;;;;;;22.27;13.70;;;;;;;1.27;94.15;91579.22;5113388;28;20456;-66
2021/12/16 08:13:25;;;;;;;31.15;16.90;;;;;;;1.32;95.19;91589.78;5114397;28;20024;-66
2021/12/16 08:15:52;;;;;;;23.13;13.73;;;;;;;1.05;96.31;91586.94;5113862;28;20127;-67
2021/12/16 08:18:17;;;;;;;39.80;23.52;;;;;;;1.02;97.76;91584.81;5114233;28;20039;-67
2021/12/16 08:20:43;;;;;;;60.05;32.97;;;;;;;1.01;100.00;91577.19;5114591;27;20019;-66
2021/12/16 08:23:09;;;;;;;35.03;19.98;;;;;;;0.81;99.46;91573.16;5112842;28;20503;-66
2021/12/16 08:25:36;;;;;;;24.10;13.88;;;;;;;0.67;98.78;91582.31;5114008;28;20028;-66
2021/12/16 08:28:03;;;;;;;31.85;18.83;;;;;;;0.42;100.00;91580.00;5114257;28;20112;-67
2021/12/16 08:30:32;;;;;;;31.90;19.20;;;;;;;0.31;100.00;91578.19;5114127;28;20035;-66
2021/12/16 08:33:03;;;;;;;44.63;24.42;;;;;;;0.46;100.00;91575.09;5113931;28;20085;-67
2021/12/16 08:35:29;;;;;;;35.67;21.58;;;;;;;0.85;100.00;91569.03;5113834;28;20108;-66
2021/12/16 08:37:55;;;;;;;36.75;20.15;;;;;;;1.20;98.11;91568.09;5113810;28;20117;-66
2021/12/16 08:40:23;;;;;;;58.20;36.67;;;;;;;1.71;96.61;91571.53;5113687;28;20145;-67
2021/12/16 08:42:49;;;;;;;59.33;33.45;;;;;;;3.64;85.19;91576.47;5113867;28;20131;-67
2021/12/16 08:45:19;;;;;;;44.08;23.67;;;;;;;5.08;73.19;91564.66;5113674;28;20059;-67
2021/12/16 08:47:45;;;;;;;46.08;26.25;;;;;;;4.66;70.53;91569.22;5113140;28;20475;-67
2021/12/16 08:50:15;;;;;;;58.60;31.65;;;;;;;4.35;71.62;91566.44;5113478;28;20023;-67
2021/12/16 08:52:41;;;;;;;37.40;22.08;;;;;;;4.85;70.09;91573.00;5113143;28;20043;-67
2021/12/16 08:55:07;;;;;;;37.85;20.38;;;;;;;4.61;69.59;91572.63;5113420;28;20425;-67
2021/12/16 08:57:33;;;;;;;29.38;16.50;;;;;;;6.72;65.36;91568.91;5113402;28;20470;-67
2021/12/16 08:59:58;;;;;;;28.17;17.33;;;;;;;8.75;59.17;91558.06;5113403;28;20023;-67
2021/12/16 09:02:24;;;;;;;27.98;18.20;;;;;;;10.94;53.37;91555.69;5111895;28;20028;-67
2021/12/16 09:04:51;;;;;;;31.45;17.85;;;;;;;12.28;48.13;91559.53;5113361;28;20028;-67
2021/12/16 09:07:17;;;;;;;36.03;21.27;;;;;;;12.38;47.33;91557.72;5113272;28;20477;-66
2021/12/16 09:09:45;;;;;;;26.30;18.38;;;;;;;13.04;47.35;91567.53;5113191;28;20019;-66
2021/12/16 09:12:47;;;;;;;23.60;15.93;;;;;;;12.24;47.53;91569.25;5113000;28;20489;-67
2021/12/16 09:15:08;;;;;;;17.75;13.02;;;;;;;12.79;46.81;91569.00;5112839;28;20051;-67
2021/12/16 09:17:34;;;;;;;17.60;11.32;;;;;;;11.68;49.01;91567.00;5113060;28;20028;-67
2021/12/16 09:20:02;;;;;;;23.80;13.50;;;;;;;11.78;47.84;91568.66;5113033;28;20111;-67
2021/12/16 09:22:28;;;;;;;26.92;17.88;;;;;;;12.99;47.41;91554.31;5112309;28;20042;-67
2021/12/16 09:24:56;;;;;;;13.85;10.45;;;;;;;12.89;45.11;91554.56;5112872;28;20031;-68
2021/12/16 09:27:22;;;;;;;17.85;12.32;;;;;;;11.99;46.67;91556.47;5113052;28;20106;-67
2021/12/16 09:29:49;;;;;;;13.98;10.10;;;;;;;10.43;48.82;91552.06;5112691;28;20508;-67
2021/12/16 09:32:15;;;;;;;17.08;12.25;;;;;;;11.31;50.98;91549.38;5112842;28;20409;-67
2021/12/16 09:34:44;;;;;;;20.88;15.07;;;;;;;10.83;52.07;91544.44;5112664;28;20062;-67
2021/12/16 09:37:10;;;;;;;19.17;13.82;;;;;;;10.78;50.89;91548.00;5112573;28;20038;-67
2021/12/16 09:39:37;;;;;;;27.13;15.20;;;;;;;12.31;52.21;91539.50;5112458;28;20027;-67
2021/12/16 09:42:05;;;;;;;23.27;11.60;;;;;;;11.10;50.16;91539.13;5112310;28;20102;-67
2021/12/16 09:44:31;;;;;;;16.65;10.55;;;;;;;9.54;54.78;91537.97;5112345;28;20023;-67
2021/12/16 09:46:59;;;;;;;15.50;8.82;;;;;;;8.93;56.15;91531.56;5112335;28;20054;-67
2021/12/16 09:49:25;;;;;;;15.20;9.75;;;;;;;9.95;53.21;91532.09;5112291;28;20036;-67
2021/12/16 09:51:53;;;;;;;13.52;8.98;;;;;;;9.45;56.42;91526.41;5112064;28;20046;-68
2021/12/16 09:54:25;;;;;;;12.73;9.32;;;;;;;10.40;52.48;91536.66;5112138;28;20031;-67
2021/12/16 09:56:53;;;;;;;15.52;9.88;;;;;;;9.56;54.10;91517.22;5112075;28;20035;-67
2021/12/16 09:59:21;;;;;;;13.55;9.70;;;;;;;9.58;53.88;91531.00;5112032;28;20106;-67
2021/12/16 10:01:50;;;;;;;22.33;14.45;;;;;;;9.02;55.06;91521.13;5111988;28;20404;-67
2021/12/16 10:04:20;;;;;;;30.85;18.58;;;;;;;8.18;56.58;91519.84;5112034;28;20032;-67
2021/12/16 10:06:48;;;;;;;33.67;21.23;;;;;;;5.88;63.82;91512.22;5112151;28;20064;-67
2021/12/16 10:09:14;;;;;;;18.20;10.93;;;;;;;5.05;66.50;91522.97;5111878;28;20032;-67
2021/12/16 10:11:43;;;;;;;23.50;16.15;;;;;;;5.76;64.99;91514.34;5111725;28;20027;-67
2021/12/16 10:19:22;;;;;;;22.42;12.68;;;;;;;3.45;73.29;91509.47;5112015;28;20042;-67
2021/12/16 10:21:48;;;;;;;15.75;9.32;;;;;;;2.87;78.80;91500.56;5111504;28;20161;-67
2021/12/16 10:24:27;;;;;;;22.65;14.20;;;;;;;3.23;82.26;91504.31;5111688;28;20106;-67
2021/12/16 10:27:04;;;;;;;12.18;9.43;;;;;;;2.85;84.26;91500.00;5111629;28;20042;-67
2021/12/16 10:29:40;;;;;;;12.95;8.85;;;;;;;2.49;87.81;91483.84;5111462;28;20564;-67
2021/12/16 10:32:26;;;;;;;19.83;14.35;;;;;;;2.87;89.06;91500.56;5111447;28;20431;-67
2021/12/16 10:35:00;;;;;;;21.23;11.07;;;;;;;2.82;88.10;91497.84;5110859;28;20493;-67
2021/12/16 10:37:35;;;;;;;14.02;8.68;;;;;;;2.65;91.40;91487.44;5111539;28;20064;-68
2021/12/16 10:40:33;;;;;;;20.25;12.15;;;;;;;2.91;90.07;91502.44;5111453;28;20481;-68
2021/12/16 10:43:07;;;;;;;14.82;9.52;;;;;;;3.26;86.56;91498.53;5111444;28;20379;-68
2021/12/16 10:45:35;;;;;;;13.48;8.88;;;;;;;3.59;85.84;91492.22;5111470;28;20058;-68
2021/12/16 10:48:16;;;;;;;12.52;7.97;;;;;;;4.06;81.35;91487.00;5111453;28;20031;-67
2021/12/16 10:51:02;;;;;;;13.98;6.53;;;;;;;4.19;79.33;91475.22;5111205;28;20035;-67
2021/12/16 10:53:47;;;;;;;13.73;8.93;;;;;;;3.46;81.51;91482.91;5111375;28;20377;-66
2021/12/16 10:56:16;;;;;;;14.55;9.35;;;;;;;4.22;80.45;91475.50;5111276;28;20476;-67
2021/12/16 10:58:47;;;;;;;95.75;54.63;;;;;;;4.88;77.55;91477.56;5111329;28;20073;-68
2021/12/16 11:01:30;;;;;;;15.15;9.57;;;;;;;5.82;71.38;91455.19;5111139;28;20059;-67
2021/12/16 11:03:55;;;;;;;7.68;6.45;;;;;;;5.82;68.58;91459.69;5111298;28;20504;-67
2021/12/16 11:06:33;;;;;;;7.57;6.15;;;;;;;6.36;67.80;91451.94;5111197;28;20536;-68
2021/12/16 11:09:36;;;;;;;13.38;7.25;;;;;;;4.89;70.05;91458.09;5111210;28;20115;-68
2021/12/16 11:12:11;;;;;;;14.63;9.52;;;;;;;3.26;77.82;91459.88;5111044;28;20112;-68
2021/12/16 11:14:40;;;;;;;9.73;7.28;;;;;;;2.72;82.99;91453.91;5110873;28;20044;-67
2021/12/16 11:17:08;;;;;;;16.30;9.57;;;;;;;2.27;87.53;91451.59;5111000;28;20043;-68
2021/12/16 11:20:00;;;;;;;16.92;9.88;;;;;;;1.89;91.65;91455.84;5111021;28;20406;-67
2021/12/16 11:22:31;;;;;;;13.07;9.80;;;;;;;2.22;93.05;91451.53;5108139;28;20039;-67
2021/12/16 11:25:09;;;;;;;15.98;10.80;;;;;;;2.41;91.52;91455.41;5111006;28;20122;-67
2021/12/16 11:27:36;;;;;;;10.93;7.20;;;;;;;2.13;91.51;91451.16;5110940;28;20034;-67
2021/12/16 11:30:24;;;;;;;14.98;9.70;;;;;;;2.08;93.54;91451.91;5110948;28;20116;-68
2021/12/16 11:32:52;;;;;;;13.95;9.45;;;;;;;3.47;85.23;91452.97;5107786;28;20442;-68
2021/12/16 11:35:24;;;;;;;29.33;18.88;;;;;;;5.38;77.08;91455.75;5110916;28;20032;-68
2021/12/16 11:37:50;;;;;;;17.40;11.93;;;;;;;6.20;70.00;91443.25;5109508;28;20455;-68
2021/12/16 11:40:17;;;;;;;13.80;8.13;;;;;;;6.69;64.68;91444.41;5110739;28;20032;-67
2021/12/16 11:42:43;;;;;;;8.52;6.70;;;;;;;5.78;68.88;91437.50;5110776;28;20135;-68
2021/12/16 11:45:09;;;;;;;12.48;8.75;;;;;;;6.73;65.80;91443.56;5112708;28;20076;-67
2021/12/16 11:47:35;;;;;;;18.73;10.90;;;;;;;5.88;66.16;91450.72;5114598;28;20497;-67
2021/12/16 11:50:09;;;;;;;8.82;6.75;;;;;;;4.16;70.68;91452.03;5114551;28;20027;-68
2021/12/16 11:52:39;;;;;;;10.68;7.18;;;;;;;2.95;76.45;91444.91;5114787;28;20031;-68
2021/12/16 11:55:08;;;;;;;24.63;15.95;;;;;;;2.47;83.10;91441.28;5114907;28;20467;-68
2021/12/16 11:57:41;;;;;;;6.65;5.72;;;;;;;1.68;88.37;91444.28;5114447;28;20088;-68
2021/12/16 12:00:27;;;;;;;;;;;;;;;2.13;90.78;91453.00;5114904;28;20508;-68
2021/12/16 12:02:56;;;;;;;8.15;5.88;;;;;;;1.43;91.39;91434.28;5113865;27;19922;-67
2021/12/16 12:05:35;;;;;;;9.98;6.93;;;;;;;1.72;94.12;91449.84;5114344;28;20114;-68
2021/12/16 12:08:21;;;;;;;7.22;5.55;;;;;;;1.65;95.17;91450.03;5114207;28;20424;-69
2021/12/16 12:11:16;;;;;;;9.93;7.05;;;;;;;2.08;94.09;91443.25;5114415;28;20035;-68
2021/12/16 12:13:48;;;;;;;7.55;5.57;;;;;;;2.10;90.83;91449.03;5111432;28;20501;-67
2021/12/16 12:16:23;;;;;;;12.02;7.45;;;;;;;2.92;84.61;91437.53;5114397;28;20114;-68
2021/12/16 12:18:58;;;;;;;6.30;4.82;;;;;;;3.18;81.03;91438.53;5114320;27;20036;-68
2021/12/16 12:21:29;;;;;;;11.05;6.95;;;;;;;4.18;76.84;91437.56;5113866;28;20043;-68
2021/12/16 12:24:15;;;;;;;9.30;6.40;;;;;;;4.79;72.87;91448.31;5113986;28;20833;-67
2021/12/16 12:26:54;;;;;;;10.77;6.53;;;;;;;5.14;72.04;91464.44;5113890;28;20031;-67
2021/12/16 12:29:35;;;;;;;5.35;4.82;;;;;;;5.58;69.87;91452.31;5113775;28;20020;-67
2021/12/16 12:32:14;;;;;;;6.50;5.50;;;;;;;5.65;67.53;91437.00;5113611;28;20110;-67
2021/12/16 12:34:44;;;;;;;8.55;6.15;;;;;;;6.34;66.61;91450.63;5113872;27;20024;-68
2021/12/16 12:37:13;;;;;;;15.77;9.85;;;;;;;6.27;66.39;91446.41;5112357;28;20035;-67
2021/12/16 12:39:43;;;;;;;8.70;6.28;;;;;;;7.28;63.19;91448.81;5113575;28;20032;-68
2021/12/16 12:42:11;;;;;;;8.38;5.65;;;;;;;7.89;61.07;91450.97;5113383;28;20024;-68
2021/12/16 12:44:37;;;;;;;5.43;4.47;;;;;;;5.08;66.29;91448.63;5113530;28;20126;-68
2021/12/16 12:47:06;;;;;;;4.25;3.85;;;;;;;4.35;69.92;91426.84;5113410;28;20039;-68
2021/12/16 12:49:32;;;;;;;8.82;5.57;;;;;;;3.28;74.78;91449.13;5112057;28;20381;-68
2021/12/16 12:52:20;;;;;;;6.55;4.72;;;;;;;2.39;80.36;91439.13;5113271;28;20024;-68
2021/12/16 12:54:58;;;;;;;13.50;8.95;;;;;;;1.64;89.80;91431.91;5113393;28;20224;-68
2021/12/16 12:57:30;;;;;;;10.18;6.43;;;;;;;1.33;94.16;91438.56;5112764;28;20024;-67
2021/12/16 12:59:57;;;;;;;9.18;5.82;;;;;;;1.14;98.26;91444.06;5115214;27;20036;-67
2021/12/16 13:02:45;;;;;;;11.18;7.95;;;;;;;1.17;98.82;91451.44;5113092;28;20176;-67
2021/12/16 13:05:17;;;;;;;10.25;6.57;;;;;;;1.17;100.00;91450.66;5112889;28;20474;-66
2021/12/16 13:07:51;;;;;;;12.00;8.70;;;;;;;1.23;100.00;91444.44;5113153;27;20042;-66
2021/12/16 13:10:41;;;;;;;24.55;12.13;;;;;;;1.31;100.00;91453.75;5112966;28;20035;-66
2021/12/16 13:15:54;;;;;;;21.23;13.02;;;;;;;1.15;100.00;91452.72;5112812;28;20055;-67
2021/12/16 13:26:51;;;;;;;7.72;6.22;;;;;;;0.93;100.00;91457.06;5112765;28;20100;-68
2021/12/16 13:32:17;;;;;;;13.73;8.40;;;;;;;0.88;100.00;91453.34;5112489;28;20080;-68
2021/12/16 13:35:21;;;;;;;7.68;6.00;;;;;;;0.72;100.00;91461.97;5112645;28;20032;-68
2021/12/16 13:37:48;;;;;;;8.98;6.32;;;;;;;0.74;100.00;91451.25;5112773;28;20020;-68
2021/12/16 13:40:36;;;;;;;7.43;6.15;;;;;;;0.70;100.00;91453.56;5112407;28;20038;-67
2021/12/16 13:43:17;;;;;;;13.00;8.25;;;;;;;0.76;100.00;91452.59;5112403;28;20390;-67
2021/12/16 13:45:57;;;;;;;14.50;9.05;;;;;;;0.69;100.00;91441.50;5112383;28;20047;-68
2021/12/16 14:00:29;;;;;;;22.13;9.00;;;;;;;0.70;100.00;91443.06;5112226;28;20042;-68
2021/12/16 14:02:54;;;;;;;14.55;7.28;;;;;;;0.55;100.00;91433.13;5111856;28;20023;-68
2021/12/16 14:05:42;;;;;;;23.52;9.25;;;;;;;0.51;100.00;91436.47;5111985;28;20035;-68
2021/12/16 14:08:12;;;;;;;11.95;7.45;;;;;;;0.56;100.00;91439.97;5111053;28;20020;-68
2021/12/16 14:10:47;;;;;;;21.92;10.07;;;;;;;0.48;100.00;91442.97;5111757;28;20035;-68
2021/12/16 14:31:09;;;;;;;12.30;8.63;;;;;;;-0.09;100.00;91442.94;5111688;28;20031;-67
2021/12/16 14:41:26;;;;;;;11.40;9.52;;;;;;;-0.47;100.00;91451.34;5111403;28;20059;-67
2021/12/16 14:49:37;;;;;;;11.38;7.60;;;;;;;-0.50;100.00;91470.06;5111443;28;20024;-67
2021/12/16 14:52:04;;;;;;;10.95;7.88;;;;;;;-0.49;100.00;91466.41;5111190;28;20481;-66
2021/12/16 14:54:34;;;;;;;18.10;10.48;;;;;;;-0.53;100.00;91465.28;5109983;28;20493;-67
2021/12/16 14:57:01;;;;;;;13.18;9.52;;;;;;;-0.63;100.00;91472.94;5111183;28;20023;-66
2021/12/16 14:59:29;;;;;;;8.45;6.13;;;;;;;-0.71;100.00;91466.22;5110931;28;20045;-66
2021/12/16 15:01:59;;;;;;;9.57;7.63;;;;;;;-0.66;100.00;91475.97;5111063;28;20773;-67
2021/12/16 15:04:26;;;;;;;12.50;9.52;;;;;;;-0.61;100.00;91470.88;5111246;28;20050;-66
2021/12/16 15:07:06;;;;;;;15.55;9.07;;;;;;;-0.55;100.00;91485.63;5111223;28;20443;-67